createdAt,value
2022-08-22T00:02:48.856Z,0.88
2022-08-22T00:03:08.203Z,0.35
2022-08-22T00:03:11.932Z,0.77
2022-08-22T00:03:16.107Z,0.40
2022-08-22T00:05:34.201Z,0.57
2022-08-22T00:08:04.661Z,0.43
2022-08-22T00:10:36.906Z,0.10
2022-08-22T00:13:07.866Z,0.43
2022-08-22T00:15:43.035Z,0.80
2022-08-22T00:18:17.530Z,0.38
2022-08-22T00:20:48.285Z,0.40
2022-08-22T00:23:18.533Z,0.50
2022-08-22T00:25:52.374Z,0.38
2022-08-22T00:28:23.120Z,0.70
2022-08-22T00:30:57.879Z,0.55
2022-08-22T00:33:32.921Z,0.50
2022-08-22T00:36:25.261Z,0.50
2022-08-22T00:38:56.646Z,0.98
2022-08-22T00:41:32.680Z,0.80
2022-08-22T00:44:22.150Z,0.35
2022-08-22T00:46:58.397Z,0.30
2022-08-22T00:49:45.027Z,0.38
2022-08-22T00:52:24.348Z,0.70
2022-08-22T00:55:02.556Z,0.40
2022-08-22T00:57:37.221Z,0.43
2022-08-22T01:00:13.008Z,0.25
2022-08-22T01:02:55.558Z,0.63
2022-08-22T01:05:36.242Z,0.50
2022-08-22T01:08:10.530Z,0.45
2022-08-22T01:10:46.717Z,0.70
2022-08-22T01:13:20.431Z,0.60
2022-08-22T01:15:49.956Z,0.50
2022-08-22T01:18:36.020Z,0.40
2022-08-22T01:21:35.403Z,0.38
2022-08-22T01:24:19.487Z,0.80
2022-08-22T01:27:07.166Z,0.38
2022-08-22T01:29:59.883Z,0.60
2022-08-22T01:32:50.336Z,0.60
2022-08-22T01:35:37.475Z,0.63
2022-08-22T01:38:23.512Z,0.25
2022-08-22T01:41:06.225Z,0.52
2022-08-22T01:43:59.092Z,0.60
2022-08-22T01:46:34.463Z,0.50
2022-08-22T01:49:06.717Z,0.85
2022-08-22T01:51:40.302Z,0.63
2022-08-22T01:54:11.370Z,0.38
2022-08-22T01:56:42.310Z,0.38
2022-08-22T01:59:12.328Z,0.50
2022-08-22T02:01:46.191Z,0.35
2022-08-22T02:04:18.484Z,0.38
2022-08-22T02:06:52.645Z,0.13
2022-08-22T02:09:31.136Z,0.60
2022-08-22T02:12:01.915Z,0.55
2022-08-22T02:14:39.731Z,0.43
2022-08-22T02:17:15.936Z,0.20
2022-08-22T02:19:48.906Z,0.30
2022-08-22T02:22:24.341Z,0.40
2022-08-22T02:24:55.496Z,0.50
2022-08-22T02:27:31.448Z,0.63
2022-08-22T02:30:01.908Z,0.80
2022-08-22T02:32:32.064Z,0.40
2022-08-22T02:35:04.702Z,0.40
2022-08-22T02:37:38.094Z,0.30
2022-08-22T02:40:10.190Z,0.50
2022-08-22T02:42:42.133Z,0.60
2022-08-22T02:45:17.716Z,0.57
2022-08-22T02:47:51.092Z,0.95
2022-08-22T02:50:21.101Z,0.45
2022-08-22T02:52:57.974Z,0.35
2022-08-22T02:55:37.170Z,0.70
2022-08-22T02:58:07.998Z,0.30
2022-08-22T03:00:45.221Z,0.70
2022-08-22T03:03:17.543Z,0.38
2022-08-22T03:05:51.367Z,0.57
2022-08-22T03:08:24.431Z,0.28
2022-08-22T03:10:58.894Z,0.52
2022-08-22T03:13:28.703Z,0.45
2022-08-22T03:15:59.616Z,0.47
2022-08-22T03:18:29.425Z,0.30
2022-08-22T03:20:59.925Z,0.43
2022-08-22T03:23:35.084Z,0.40
2022-08-22T03:26:07.777Z,0.35
2022-08-22T03:28:39.150Z,0.50
2022-08-22T03:31:27.786Z,0.73
2022-08-22T03:34:13.818Z,0.60
2022-08-22T03:36:47.092Z,0.65
2022-08-22T03:41:58.151Z,0.17
2022-08-22T03:44:44.649Z,0.32
2022-08-22T03:47:28.580Z,0.43
2022-08-22T03:50:15.272Z,0.35
2022-08-22T03:53:18.882Z,0.77
2022-08-22T03:56:06.850Z,0.32
2022-08-22T03:58:52.890Z,0.38
2022-08-22T04:01:39.188Z,0.43
2022-08-22T04:04:21.542Z,0.70
2022-08-22T04:07:13.878Z,0.40
2022-08-22T04:10:10.176Z,0.38
2022-08-22T04:12:48.822Z,0.47
2022-08-22T04:15:47.275Z,0.43
2022-08-22T04:18:25.408Z,0.50
2022-08-22T04:21:14.479Z,0.60
2022-08-22T04:24:02.926Z,0.85
2022-08-22T04:26:35.172Z,0.13
2022-08-22T04:29:07.258Z,0.40
2022-08-22T04:31:37.979Z,0.38
2022-08-22T04:34:15.963Z,0.57
2022-08-22T04:36:48.149Z,0.30
2022-08-22T04:39:18.745Z,0.20
2022-08-22T04:41:50.021Z,0.30
2022-08-22T04:44:21.098Z,0.30
2022-08-22T04:46:51.403Z,0.20
2022-08-22T04:49:24.571Z,0.80
2022-08-22T04:51:55.811Z,0.68
2022-08-22T04:54:39.393Z,0.73
2022-08-22T04:57:13.147Z,0.80
2022-08-22T04:59:41.539Z,0.68
2022-08-22T05:02:11.325Z,0.70
2022-08-22T05:04:43.686Z,0.50
2022-08-22T05:07:13.680Z,0.60
2022-08-22T05:09:44.602Z,0.28
2022-08-22T05:12:15.566Z,0.63
2022-08-22T05:14:44.982Z,0.60
2022-08-22T05:17:17.056Z,0.20
2022-08-22T05:19:50.607Z,0.40
2022-08-22T05:22:21.718Z,0.65
2022-08-22T05:24:52.010Z,0.80
2022-08-22T05:27:23.324Z,0.47
2022-08-22T05:29:53.729Z,0.93
2022-08-22T05:32:26.845Z,0.60
2022-08-22T05:35:03.596Z,0.40
2022-08-22T05:37:36.617Z,0.25
2022-08-22T05:40:05.644Z,0.35
2022-08-22T05:42:37.452Z,0.32
2022-08-22T05:45:11.606Z,0.22
2022-08-22T05:50:14.127Z,0.50
2022-08-22T05:52:53.055Z,0.60
2022-08-22T05:55:26.108Z,0.30
2022-08-22T05:58:11.536Z,0.28
2022-08-22T06:03:15.179Z,0.25
2022-08-22T06:05:47.040Z,0.75
2022-08-22T06:08:19.312Z,0.40
2022-08-22T06:10:49.700Z,0.35
2022-08-22T06:13:24.732Z,0.70
2022-08-22T06:15:56.901Z,0.55
2022-08-22T06:18:27.271Z,0.40
2022-08-22T06:20:57.551Z,0.80
2022-08-22T06:23:28.269Z,0.47
2022-08-22T06:25:59.449Z,0.52
2022-08-22T06:28:29.305Z,0.65
2022-08-22T06:30:58.947Z,0.70
2022-08-22T06:33:28.248Z,0.43
2022-08-22T06:36:20.640Z,0.93
2022-08-22T06:38:58.828Z,0.57
2022-08-22T06:41:30.541Z,0.77
2022-08-22T06:43:59.674Z,0.93
2022-08-22T06:46:29.808Z,0.85
2022-08-22T06:49:00.432Z,1.02
2022-08-22T06:51:30.941Z,1.83
2022-08-22T06:54:01.768Z,0.60
2022-08-22T06:56:32.240Z,0.95
2022-08-22T06:59:02.844Z,0.88
2022-08-22T07:01:32.845Z,1.00
2022-08-22T07:04:02.360Z,0.90
2022-08-22T07:06:34.156Z,1.05
2022-08-22T07:09:05.625Z,1.08
2022-08-22T07:11:38.542Z,1.17
2022-08-22T07:14:09.050Z,1.27
2022-08-22T07:16:42.512Z,0.80
2022-08-22T07:19:12.220Z,1.08
2022-08-22T07:21:45.999Z,0.73
2022-08-22T07:24:17.648Z,1.10
2022-08-22T07:26:52.230Z,1.20
2022-08-22T07:29:27.349Z,0.93
2022-08-22T07:31:58.646Z,1.23
2022-08-22T07:34:33.117Z,1.02
2022-08-22T07:37:06.757Z,0.63
2022-08-22T07:39:37.335Z,0.52
2022-08-22T07:42:12.066Z,0.88
2022-08-22T07:44:49.304Z,0.50
2022-08-22T07:47:26.150Z,0.45
2022-08-22T07:49:56.882Z,0.65
2022-08-22T07:52:28.136Z,0.30
2022-08-22T07:54:58.184Z,1.20
2022-08-22T07:57:31.119Z,0.90
2022-08-22T08:00:01.131Z,0.80
2022-08-22T08:02:29.997Z,0.70
2022-08-22T08:05:00.290Z,0.88
2022-08-22T08:07:32.207Z,0.40
2022-08-22T08:10:03.440Z,0.50
2022-08-22T08:12:36.025Z,0.55
2022-08-22T08:15:05.379Z,0.77
2022-08-22T08:17:35.093Z,0.60
2022-08-22T08:20:07.035Z,0.80
2022-08-22T08:22:38.391Z,0.85
2022-08-22T08:25:08.332Z,0.70
2022-08-22T08:27:55.623Z,0.45
2022-08-22T08:30:25.763Z,0.50
2022-08-22T08:32:59.672Z,0.82
2022-08-22T08:36:03.226Z,0.82
2022-08-22T08:38:39.356Z,0.90
2022-08-22T08:41:31.530Z,0.95
2022-08-22T08:44:05.270Z,0.50
2022-08-22T08:46:55.415Z,0.60
2022-08-22T08:49:39.769Z,0.57
2022-08-22T08:52:33.141Z,0.20
2022-08-22T08:55:15.992Z,0.50
2022-08-22T08:57:55.875Z,0.55
2022-08-22T09:00:29.115Z,0.85
2022-08-22T09:03:07.847Z,0.60
2022-08-22T09:05:47.234Z,1.27
2022-08-22T09:08:25.756Z,0.50
2022-08-22T09:11:09.561Z,0.70
2022-08-22T09:13:49.614Z,0.70
2022-08-22T09:16:25.766Z,0.60
2022-08-22T09:19:21.699Z,0.60
2022-08-22T09:22:14.595Z,0.77
2022-08-22T09:25:11.255Z,0.93
2022-08-22T09:27:47.178Z,0.60
2022-08-22T09:30:18.070Z,0.73
2022-08-22T09:32:58.785Z,0.68
2022-08-22T09:35:29.471Z,0.75
2022-08-22T09:38:14.312Z,0.90
2022-08-22T09:40:46.780Z,0.52
2022-08-22T09:43:21.226Z,0.65
2022-08-22T09:45:53.014Z,0.70
2022-08-22T09:48:35.363Z,0.50
2022-08-22T09:51:31.843Z,0.60
2022-08-22T09:54:10.224Z,0.50
2022-08-22T09:56:40.342Z,0.70
2022-08-22T09:59:13.159Z,0.50
2022-08-22T10:01:49.190Z,0.38
2022-08-22T10:04:45.157Z,0.43
2022-08-22T10:09:46.340Z,0.60
2022-08-22T10:12:19.173Z,0.60
2022-08-22T10:15:02.385Z,0.60
2022-08-22T10:17:32.960Z,0.43
2022-08-22T10:20:05.783Z,0.70
2022-08-22T10:22:40.845Z,0.70
2022-08-22T10:25:22.448Z,0.77
2022-08-22T10:27:54.936Z,1.05
2022-08-22T10:30:27.782Z,0.55
2022-08-22T10:33:02.258Z,0.80
2022-08-22T10:35:33.767Z,0.50
2022-08-22T10:38:06.183Z,0.55
2022-08-22T10:40:41.110Z,0.60
2022-08-22T10:43:11.703Z,0.47
2022-08-22T10:45:43.912Z,0.77
2022-08-22T10:48:29.377Z,0.50
2022-08-22T10:51:08.809Z,0.60
2022-08-22T10:53:46.143Z,0.63
2022-08-22T10:56:17.042Z,0.52
2022-08-22T10:58:54.889Z,0.52
2022-08-22T11:01:37.679Z,0.82
2022-08-22T11:04:13.869Z,0.65
2022-08-22T11:06:45.898Z,0.57
2022-08-22T11:09:24.567Z,0.40
2022-08-22T11:11:58.059Z,0.63
2022-08-22T11:14:44.792Z,0.63
2022-08-22T11:17:33.212Z,0.47
2022-08-22T11:20:14.667Z,0.50
2022-08-22T11:22:47.113Z,0.43
2022-08-22T11:25:35.837Z,0.50
2022-08-22T11:28:24.662Z,0.88
2022-08-22T11:30:58.960Z,0.60
2022-08-22T11:33:46.701Z,0.40
2022-08-22T11:36:29.195Z,0.40
2022-08-22T11:39:03.580Z,0.30
2022-08-22T11:41:40.019Z,0.50
2022-08-22T11:44:13.844Z,0.40
2022-08-22T11:46:45.004Z,0.43
2022-08-22T11:49:31.733Z,0.50
2022-08-22T11:52:11.985Z,0.60
2022-08-22T11:54:48.329Z,1.00
2022-08-22T11:57:21.658Z,0.57
2022-08-22T12:00:10.149Z,0.40
2022-08-22T12:02:44.222Z,0.30
2022-08-22T12:05:24.593Z,0.50
2022-08-22T12:07:56.845Z,0.65
2022-08-22T12:10:29.459Z,0.40
2022-08-22T12:13:01.366Z,0.50
2022-08-22T12:15:33.573Z,0.55
2022-08-22T12:18:21.321Z,0.40
2022-08-22T12:21:10.099Z,0.40
2022-08-22T12:23:49.665Z,0.60
2022-08-22T12:26:23.461Z,0.65
2022-08-22T12:28:59.935Z,0.40
2022-08-22T12:31:32.862Z,0.30
2022-08-22T12:34:19.305Z,0.40
2022-08-22T12:37:08.379Z,0.60
2022-08-22T12:39:45.267Z,0.60
2022-08-22T12:42:24.109Z,0.50
2022-08-22T12:45:01.098Z,0.45
2022-08-22T12:47:37.640Z,0.45
2022-08-22T12:50:19.220Z,0.90
2022-08-22T12:52:54.778Z,0.40
2022-08-22T12:55:32.948Z,0.60
2022-08-22T12:58:08.120Z,1.20
2022-08-22T13:00:37.868Z,0.55
2022-08-22T13:03:08.091Z,0.82
2022-08-22T13:05:40.848Z,0.45
2022-08-22T13:08:13.405Z,0.50
2022-08-22T13:10:46.946Z,0.30
2022-08-22T13:13:28.229Z,0.40
2022-08-22T13:16:08.970Z,0.60
2022-08-22T13:18:44.675Z,0.40
2022-08-22T13:21:16.479Z,0.65
2022-08-22T13:23:50.864Z,0.45
2022-08-22T13:26:31.669Z,0.50
2022-08-22T13:29:24.440Z,0.60
2022-08-22T13:31:55.155Z,0.55
2022-08-22T13:34:36.858Z,0.40
2022-08-22T13:37:10.201Z,0.55
2022-08-22T13:39:42.767Z,0.40
2022-08-22T13:42:27.750Z,0.77
2022-08-22T13:45:02.461Z,0.98
2022-08-22T13:47:32.511Z,0.68
2022-08-22T13:50:09.300Z,0.65
2022-08-22T13:52:40.943Z,0.85
2022-08-22T13:55:16.258Z,0.50
2022-08-22T13:57:51.961Z,0.60
2022-08-22T14:00:39.258Z,0.50
2022-08-22T14:03:29.525Z,0.50
2022-08-22T14:06:32.497Z,0.43
2022-08-22T14:08:49.281Z,0.55
2022-08-22T14:11:27.438Z,0.40
2022-08-22T14:13:59.255Z,0.90
2022-08-22T14:16:29.324Z,0.57
2022-08-22T14:18:59.787Z,0.43
2022-08-22T14:21:40.587Z,0.40
2022-08-22T14:24:14.543Z,0.50
2022-08-22T14:26:51.780Z,0.43
2022-08-22T14:29:22.152Z,0.63
2022-08-22T14:31:57.644Z,0.43
2022-08-22T14:34:29.008Z,0.75
2022-08-22T14:37:00.973Z,0.55
2022-08-22T14:39:32.184Z,0.70
2022-08-22T14:42:11.121Z,0.27
2022-08-22T14:44:42.426Z,0.50
2022-08-22T14:47:34.474Z,0.40
2022-08-22T14:50:09.513Z,0.40
2022-08-22T14:52:41.720Z,0.50
2022-08-22T14:55:18.384Z,0.70
2022-08-22T14:57:51.179Z,0.50
2022-08-22T15:00:32.138Z,0.40
2022-08-22T15:03:11.349Z,0.60
2022-08-22T15:05:47.784Z,0.60
2022-08-22T15:08:27.666Z,0.50
2022-08-22T15:11:20.951Z,0.60
2022-08-22T15:13:57.175Z,0.60
2022-08-22T15:16:31.258Z,0.47
2022-08-22T15:21:30.292Z,0.60
2022-08-22T15:24:01.567Z,0.28
2022-08-22T15:26:31.587Z,0.45
2022-08-22T15:29:08.018Z,0.50
2022-08-22T15:31:40.691Z,0.43
2022-08-22T15:34:14.339Z,0.65
2022-08-22T15:37:01.463Z,0.40
2022-08-22T15:39:39.187Z,0.60
2022-08-22T15:42:11.920Z,0.57
2022-08-22T15:44:44.193Z,0.50
2022-08-22T15:47:27.633Z,0.70
2022-08-22T15:52:29.337Z,0.50
2022-08-22T15:55:18.807Z,0.60
2022-08-22T15:57:52.261Z,0.35
2022-08-22T16:00:28.976Z,0.47
2022-08-22T16:02:59.928Z,0.63
2022-08-22T16:05:29.633Z,0.40
2022-08-22T16:08:03.999Z,0.30
2022-08-22T16:10:35.774Z,0.50
2022-08-22T16:13:15.944Z,0.40
2022-08-22T16:16:01.978Z,0.40
2022-08-22T16:18:49.171Z,0.50
2022-08-22T16:21:40.022Z,0.40
2022-08-22T16:24:27.128Z,0.30
2022-08-22T16:26:56.990Z,0.50
2022-08-22T16:29:31.393Z,0.20
2022-08-22T16:32:08.854Z,0.30
2022-08-22T16:34:45.923Z,0.30
2022-08-22T16:37:44.502Z,0.43
2022-08-22T16:40:20.410Z,0.50
2022-08-22T16:42:51.874Z,0.65
2022-08-22T16:45:22.710Z,1.13
2022-08-22T16:48:02.155Z,0.32
2022-08-22T16:50:36.048Z,0.85
2022-08-22T16:53:06.443Z,0.70
2022-08-22T16:55:42.813Z,0.77
2022-08-22T16:58:18.992Z,0.45
2022-08-22T17:00:49.868Z,0.50
2022-08-22T17:03:22.010Z,0.80
2022-08-22T17:05:57.093Z,1.08
2022-08-22T17:08:35.178Z,0.70
2022-08-22T17:11:08.141Z,0.70
2022-08-22T17:13:50.532Z,0.28
2022-08-22T17:16:28.436Z,0.40
2022-08-22T17:19:05.117Z,0.20
2022-08-22T17:21:39.650Z,0.10
2022-08-22T17:24:31.846Z,0.30
2022-08-22T17:27:05.362Z,0.20
2022-08-22T17:29:43.868Z,0.30
2022-08-22T17:32:16.313Z,0.28
2022-08-22T17:34:50.223Z,0.30
2022-08-22T17:37:22.617Z,0.40
2022-08-22T17:40:11.975Z,0.20
2022-08-22T17:42:47.729Z,0.50
2022-08-22T17:45:25.755Z,0.35
2022-08-22T17:48:00.651Z,0.10
2022-08-22T17:50:36.167Z,0.25
2022-08-22T17:53:09.491Z,0.30
2022-08-22T17:55:41.496Z,0.32
2022-08-22T17:58:13.575Z,0.20
2022-08-22T18:01:10.708Z,0.25
2022-08-22T18:03:41.521Z,0.30
2022-08-22T18:06:12.212Z,0.20
2022-08-22T18:11:38.859Z,0.50
2022-08-22T18:14:11.469Z,0.10
2022-08-22T18:16:45.434Z,0.40
2022-08-22T18:19:17.494Z,0.30
2022-08-22T18:21:51.589Z,0.55
2022-08-22T18:24:28.211Z,0.30
2022-08-22T18:27:02.807Z,0.30
2022-08-22T18:29:40.997Z,0.20
2022-08-22T18:32:15.387Z,0.30
2022-08-22T18:34:46.616Z,0.22
2022-08-22T18:37:20.497Z,0.40
2022-08-22T18:39:51.952Z,0.20
2022-08-22T18:42:24.867Z,0.30
2022-08-22T18:44:53.360Z,0.30
2022-08-22T18:47:25.643Z,0.38
2022-08-22T18:49:55.221Z,0.80
2022-08-22T18:52:42.368Z,0.52
2022-08-22T18:55:27.245Z,0.47
2022-08-22T18:58:17.659Z,0.60
2022-08-22T19:00:52.777Z,0.50
2022-08-22T19:03:29.824Z,0.50
2022-08-22T19:06:24.235Z,0.47
2022-08-22T19:09:05.261Z,0.40
2022-08-22T19:11:42.909Z,0.25
2022-08-22T19:14:22.056Z,0.40
2022-08-22T19:16:57.640Z,0.32
2022-08-22T19:19:56.875Z,0.45
2022-08-22T19:22:27.032Z,0.17
2022-08-22T19:25:10.741Z,0.30
2022-08-22T19:27:41.324Z,0.47
2022-08-22T19:30:29.880Z,0.35
2022-08-22T19:33:01.510Z,0.65
2022-08-22T19:35:38.608Z,0.32
2022-08-22T19:38:07.960Z,0.82
2022-08-22T19:40:53.500Z,0.82
2022-08-22T19:43:29.479Z,0.85
2022-08-22T19:46:00.234Z,0.90
2022-08-22T19:48:31.369Z,0.80
2022-08-22T19:51:12.912Z,0.93
2022-08-22T19:53:46.267Z,0.70
2022-08-22T19:56:22.188Z,0.50
2022-08-22T19:58:57.196Z,0.60
2022-08-22T20:03:55.890Z,0.52
2022-08-22T20:06:43.538Z,0.32
2022-08-22T20:09:19.251Z,0.82
2022-08-22T20:11:50.241Z,1.10
2022-08-22T20:14:24.947Z,1.48
2022-08-22T20:17:10.569Z,1.52
2022-08-22T20:20:17.156Z,1.38
2022-08-22T20:22:38.743Z,1.58
2022-08-22T20:25:15.735Z,1.17
2022-08-22T20:28:03.010Z,0.95
2022-08-22T20:30:33.437Z,1.33
2022-08-22T20:33:08.881Z,1.02
2022-08-22T20:35:40.632Z,0.88
2022-08-22T20:38:11.859Z,0.30
2022-08-22T20:40:56.474Z,0.30
2022-08-22T20:43:28.214Z,0.22
2022-08-22T20:46:01.466Z,0.85
2022-08-22T20:48:34.888Z,0.25
2022-08-22T20:51:07.355Z,0.10
2022-08-22T20:53:37.252Z,0.20
2022-08-22T20:56:09.606Z,0.25
2022-08-22T20:58:41.016Z,0.22
2022-08-22T21:01:11.811Z,0.32
2022-08-22T21:03:42.857Z,0.50
2022-08-22T21:06:12.636Z,1.08
2022-08-22T21:08:42.838Z,2.03
2022-08-22T21:11:29.650Z,3.20
2022-08-22T21:13:59.232Z,2.85
2022-08-22T21:16:31.656Z,2.40
2022-08-22T21:19:01.571Z,1.60
2022-08-22T21:21:31.085Z,2.35
2022-08-22T21:24:02.721Z,2.63
2022-08-22T21:26:32.361Z,1.88
2022-08-22T21:29:03.808Z,1.67
2022-08-22T21:31:33.386Z,1.65
2022-08-22T21:34:01.760Z,1.98
2022-08-22T21:36:31.560Z,0.68
2022-08-22T21:39:04.311Z,1.20
2022-08-22T21:41:34.128Z,0.85
2022-08-22T21:44:17.322Z,0.38
2022-08-22T21:46:46.647Z,0.50
2022-08-22T21:49:22.911Z,0.50
2022-08-22T21:51:51.667Z,0.22
2022-08-22T21:54:29.183Z,0.50
2022-08-22T21:56:58.827Z,0.60
2022-08-22T21:59:43.238Z,0.40
2022-08-22T22:02:36.793Z,0.43
2022-08-22T22:05:07.498Z,0.60
2022-08-22T22:07:37.694Z,0.30
2022-08-22T22:10:09.108Z,0.45
2022-08-22T22:12:39.718Z,0.32
2022-08-22T22:15:08.636Z,0.25
2022-08-22T22:17:36.960Z,0.30
2022-08-22T22:20:06.014Z,0.30
2022-08-22T22:22:36.893Z,0.30
2022-08-22T22:25:39.488Z,0.25
2022-08-22T22:27:56.732Z,0.13
2022-08-22T22:30:26.600Z,0.13
2022-08-22T22:32:54.991Z,0.35
2022-08-22T22:35:23.336Z,0.10
2022-08-22T22:37:51.916Z,0.22
2022-08-22T22:40:21.770Z,0.40
2022-08-22T22:42:50.163Z,0.15
2022-08-22T22:45:18.850Z,0.10
2022-08-22T22:47:47.194Z,0.32
2022-08-22T22:50:15.553Z,0.20
2022-08-22T22:52:44.079Z,0.30
2022-08-22T22:55:12.832Z,0.20
2022-08-22T22:57:58.912Z,0.20
2022-08-22T23:00:30.655Z,0.17
2022-08-22T23:02:59.787Z,0.15
2022-08-22T23:05:28.185Z,0.20
2022-08-22T23:07:56.659Z,0.10
2022-08-22T23:10:25.111Z,0.32
2022-08-22T23:12:54.958Z,0.10
2022-08-22T23:15:23.273Z,0.20
2022-08-22T23:17:51.636Z,0.20
2022-08-22T23:20:20.340Z,0.35
2022-08-22T23:22:48.803Z,0.15
2022-08-22T23:25:17.197Z,0.10
2022-08-22T23:27:48.647Z,0.22
2022-08-22T23:30:22.418Z,0.40
2022-08-22T23:32:50.770Z,0.30
2022-08-22T23:35:19.310Z,0.40
2022-08-22T23:37:47.658Z,0.10
2022-08-22T23:40:16.107Z,0.10
2022-08-22T23:42:44.555Z,0.10
2022-08-22T23:45:12.924Z,0.30
2022-08-22T23:47:42.626Z,0.20
2022-08-22T23:50:11.190Z,0.10
2022-08-22T23:52:39.531Z,0.30
2022-08-22T23:55:08.499Z,0.50
2022-08-22T23:57:36.909Z,0.30
